sensor_id;sensor_type;location;lat;lon;timestamp;temperature;humidity
32215;DHT22;18708;53.124;23.190;2023-07-13T00:02:04;18.40;99.90
32215;DHT22;18708;53.124;23.190;2023-07-13T00:04:30;18.40;99.90
32215;DHT22;18708;53.124;23.190;2023-07-13T00:06:56;18.40;99.90
32215;DHT22;18708;53.124;23.190;2023-07-13T00:09:21;18.40;99.90
32215;DHT22;18708;53.124;23.190;2023-07-13T00:11:50;18.40;99.90
32215;DHT22;18708;53.124;23.190;2023-07-13T00:14:16;18.60;99.90
32215;DHT22;18708;53.124;23.190;2023-07-13T00:16:41;18.60;99.90
32215;DHT22;18708;53.124;23.190;2023-07-13T00:19:09;18.60;99.90
32215;DHT22;18708;53.124;23.190;2023-07-13T00:21:35;18.60;99.90
32215;DHT22;18708;53.124;23.190;2023-07-13T00:24:00;18.60;99.90
32215;DHT22;18708;53.124;23.190;2023-07-13T00:26:26;18.60;99.90
32215;DHT22;18708;53.124;23.190;2023-07-13T00:28:52;18.60;99.90
32215;DHT22;18708;53.124;23.190;2023-07-13T00:31:17;18.60;99.90
32215;DHT22;18708;53.124;23.190;2023-07-13T00:33:43;18.50;99.90
32215;DHT22;18708;53.124;23.190;2023-07-13T00:36:09;18.40;99.90
32215;DHT22;18708;53.124;23.190;2023-07-13T00:38:35;18.40;99.90
32215;DHT22;18708;53.124;23.190;2023-07-13T00:41:01;18.40;99.90
32215;DHT22;18708;53.124;23.190;2023-07-13T00:43:29;18.40;99.90
32215;DHT22;18708;53.124;23.190;2023-07-13T00:48:24;18.40;99.90
32215;DHT22;18708;53.124;23.190;2023-07-13T00:50:52;18.30;99.90
32215;DHT22;18708;53.124;23.190;2023-07-13T00:53:19;18.40;99.90
32215;DHT22;18708;53.124;23.190;2023-07-13T00:55:45;18.40;99.90
32215;DHT22;18708;53.124;23.190;2023-07-13T00:58:11;18.40;99.90
32215;DHT22;18708;53.124;23.190;2023-07-13T01:00:36;18.40;99.90
32215;DHT22;18708;53.124;23.190;2023-07-13T01:03:03;18.40;99.90
32215;DHT22;18708;53.124;23.190;2023-07-13T01:05:30;18.30;99.90
32215;DHT22;18708;53.124;23.190;2023-07-13T01:07:57;18.30;99.90
32215;DHT22;18708;53.124;23.190;2023-07-13T01:10:23;18.20;99.90
32215;DHT22;18708;53.124;23.190;2023-07-13T01:12:49;18.20;99.90
32215;DHT22;18708;53.124;23.190;2023-07-13T01:17:58;18.10;99.90
32215;DHT22;18708;53.124;23.190;2023-07-13T01:20:24;18.10;99.90
32215;DHT22;18708;53.124;23.190;2023-07-13T01:22:50;18.10;99.90
32215;DHT22;18708;53.124;23.190;2023-07-13T01:25:16;18.00;99.90
32215;DHT22;18708;53.124;23.190;2023-07-13T01:27:41;18.00;99.90
32215;DHT22;18708;53.124;23.190;2023-07-13T01:30:07;17.90;99.90
32215;DHT22;18708;53.124;23.190;2023-07-13T01:32:33;17.90;99.90
32215;DHT22;18708;53.124;23.190;2023-07-13T01:34:59;17.80;99.90
32215;DHT22;18708;53.124;23.190;2023-07-13T01:37:25;17.80;99.90
32215;DHT22;18708;53.124;23.190;2023-07-13T01:39:51;17.80;99.90
32215;DHT22;18708;53.124;23.190;2023-07-13T01:42:17;17.80;99.90
32215;DHT22;18708;53.124;23.190;2023-07-13T01:44:42;17.80;99.90
32215;DHT22;18708;53.124;23.190;2023-07-13T01:47:09;17.70;99.90
32215;DHT22;18708;53.124;23.190;2023-07-13T01:49:34;17.80;99.90
32215;DHT22;18708;53.124;23.190;2023-07-13T01:52:00;17.80;99.90
32215;DHT22;18708;53.124;23.190;2023-07-13T01:54:25;17.70;99.90
32215;DHT22;18708;53.124;23.190;2023-07-13T01:56:51;17.70;99.90
32215;DHT22;18708;53.124;23.190;2023-07-13T01:59:16;17.70;99.90
32215;DHT22;18708;53.124;23.190;2023-07-13T02:01:42;17.70;99.90
32215;DHT22;18708;53.124;23.190;2023-07-13T02:04:08;17.60;99.90
32215;DHT22;18708;53.124;23.190;2023-07-13T02:06:33;17.60;99.90
32215;DHT22;18708;53.124;23.190;2023-07-13T02:08:59;17.60;99.90
32215;DHT22;18708;53.124;23.190;2023-07-13T02:11:24;17.50;99.90
32215;DHT22;18708;53.124;23.190;2023-07-13T02:13:50;17.50;99.90
32215;DHT22;18708;53.124;23.190;2023-07-13T02:16:16;17.40;99.90
32215;DHT22;18708;53.124;23.190;2023-07-13T02:18:41;17.50;99.90
32215;DHT22;18708;53.124;23.190;2023-07-13T02:21:07;17.40;99.90
32215;DHT22;18708;53.124;23.190;2023-07-13T02:23:32;17.40;99.90
32215;DHT22;18708;53.124;23.190;2023-07-13T02:25:58;17.50;99.90
32215;DHT22;18708;53.124;23.190;2023-07-13T02:28:24;17.50;99.90
32215;DHT22;18708;53.124;23.190;2023-07-13T02:30:50;17.40;99.90
32215;DHT22;18708;53.124;23.190;2023-07-13T02:33:15;17.40;99.90
32215;DHT22;18708;53.124;23.190;2023-07-13T02:35:41;17.20;99.90
32215;DHT22;18708;53.124;23.190;2023-07-13T02:38:07;17.10;99.90
32215;DHT22;18708;53.124;23.190;2023-07-13T02:40:32;17.00;99.90
32215;DHT22;18708;53.124;23.190;2023-07-13T02:42:59;16.90;99.90
32215;DHT22;18708;53.124;23.190;2023-07-13T02:45:25;16.90;99.90
32215;DHT22;18708;53.124;23.190;2023-07-13T02:47:50;17.00;99.90
32215;DHT22;18708;53.124;23.190;2023-07-13T02:50:16;17.10;99.90
32215;DHT22;18708;53.124;23.190;2023-07-13T02:52:42;17.10;99.90
32215;DHT22;18708;53.124;23.190;2023-07-13T02:55:07;17.10;99.90
32215;DHT22;18708;53.124;23.190;2023-07-13T02:57:33;17.20;99.90
32215;DHT22;18708;53.124;23.190;2023-07-13T02:59:59;17.20;99.90
32215;DHT22;18708;53.124;23.190;2023-07-13T03:02:25;17.30;99.90
32215;DHT22;18708;53.124;23.190;2023-07-13T03:04:54;17.20;99.90
32215;DHT22;18708;53.124;23.190;2023-07-13T03:07:19;17.20;99.90
32215;DHT22;18708;53.124;23.190;2023-07-13T03:09:45;17.20;99.90
32215;DHT22;18708;53.124;23.190;2023-07-13T03:12:10;17.10;99.90
32215;DHT22;18708;53.124;23.190;2023-07-13T03:14:36;17.10;99.90
32215;DHT22;18708;53.124;23.190;2023-07-13T03:17:02;17.10;99.90
32215;DHT22;18708;53.124;23.190;2023-07-13T03:19:27;17.10;99.90
32215;DHT22;18708;53.124;23.190;2023-07-13T03:21:53;17.10;99.90
32215;DHT22;18708;53.124;23.190;2023-07-13T03:24:19;17.10;99.90
32215;DHT22;18708;53.124;23.190;2023-07-13T03:26:45;17.10;99.90
32215;DHT22;18708;53.124;23.190;2023-07-13T03:29:11;17.10;99.90
32215;DHT22;18708;53.124;23.190;2023-07-13T03:31:36;17.10;99.90
32215;DHT22;18708;53.124;23.190;2023-07-13T03:34:02;17.10;99.90
32215;DHT22;18708;53.124;23.190;2023-07-13T03:36:29;17.20;99.90
32215;DHT22;18708;53.124;23.190;2023-07-13T03:38:57;17.30;99.90
32215;DHT22;18708;53.124;23.190;2023-07-13T03:41:23;17.30;99.90
32215;DHT22;18708;53.124;23.190;2023-07-13T03:43:49;17.40;99.90
32215;DHT22;18708;53.124;23.190;2023-07-13T03:46:15;17.50;99.90
32215;DHT22;18708;53.124;23.190;2023-07-13T03:48:41;17.50;99.90
32215;DHT22;18708;53.124;23.190;2023-07-13T03:51:09;17.60;99.90
32215;DHT22;18708;53.124;23.190;2023-07-13T03:53:38;17.50;99.90
32215;DHT22;18708;53.124;23.190;2023-07-13T03:56:04;17.50;99.90
32215;DHT22;18708;53.124;23.190;2023-07-13T03:58:31;17.60;99.90
32215;DHT22;18708;53.124;23.190;2023-07-13T04:00:57;17.80;99.90
32215;DHT22;18708;53.124;23.190;2023-07-13T04:03:23;17.80;99.90
32215;DHT22;18708;53.124;23.190;2023-07-13T04:05:49;17.80;99.90
32215;DHT22;18708;53.124;23.190;2023-07-13T04:08:14;17.70;99.90
32215;DHT22;18708;53.124;23.190;2023-07-13T04:10:40;17.60;99.90
32215;DHT22;18708;53.124;23.190;2023-07-13T04:13:06;17.60;99.90
32215;DHT22;18708;53.124;23.190;2023-07-13T04:15:32;17.70;99.90
32215;DHT22;18708;53.124;23.190;2023-07-13T04:17:57;17.80;99.90
32215;DHT22;18708;53.124;23.190;2023-07-13T04:20:24;17.90;99.90
32215;DHT22;18708;53.124;23.190;2023-07-13T04:22:50;18.10;99.90
32215;DHT22;18708;53.124;23.190;2023-07-13T04:25:16;18.10;99.90
32215;DHT22;18708;53.124;23.190;2023-07-13T04:27:41;18.10;99.90
32215;DHT22;18708;53.124;23.190;2023-07-13T04:30:07;18.20;99.90
32215;DHT22;18708;53.124;23.190;2023-07-13T04:32:32;18.20;99.90
32215;DHT22;18708;53.124;23.190;2023-07-13T04:34:58;18.30;99.90
32215;DHT22;18708;53.124;23.190;2023-07-13T04:37:25;18.20;99.90
32215;DHT22;18708;53.124;23.190;2023-07-13T04:39:50;18.40;99.90
32215;DHT22;18708;53.124;23.190;2023-07-13T04:42:16;18.30;99.90
32215;DHT22;18708;53.124;23.190;2023-07-13T04:44:42;18.30;99.90
32215;DHT22;18708;53.124;23.190;2023-07-13T04:47:07;18.40;99.90
32215;DHT22;18708;53.124;23.190;2023-07-13T04:49:33;18.50;99.90
32215;DHT22;18708;53.124;23.190;2023-07-13T04:51:58;18.40;99.90
32215;DHT22;18708;53.124;23.190;2023-07-13T04:54:24;18.40;99.90
32215;DHT22;18708;53.124;23.190;2023-07-13T04:56:49;18.50;99.90
32215;DHT22;18708;53.124;23.190;2023-07-13T04:59:15;18.60;99.90
32215;DHT22;18708;53.124;23.190;2023-07-13T05:01:41;18.80;99.90
32215;DHT22;18708;53.124;23.190;2023-07-13T05:04:06;18.70;99.90
32215;DHT22;18708;53.124;23.190;2023-07-13T05:06:32;18.80;99.90
32215;DHT22;18708;53.124;23.190;2023-07-13T05:08:57;18.80;99.90
32215;DHT22;18708;53.124;23.190;2023-07-13T05:11:23;19.00;99.90
32215;DHT22;18708;53.124;23.190;2023-07-13T05:13:49;19.00;99.90
32215;DHT22;18708;53.124;23.190;2023-07-13T05:16:14;19.20;99.90
32215;DHT22;18708;53.124;23.190;2023-07-13T05:18:40;19.30;99.90
32215;DHT22;18708;53.124;23.190;2023-07-13T05:21:06;19.30;99.90
32215;DHT22;18708;53.124;23.190;2023-07-13T05:23:33;19.50;99.90
32215;DHT22;18708;53.124;23.190;2023-07-13T05:25:58;19.50;99.90
32215;DHT22;18708;53.124;23.190;2023-07-13T05:28:24;19.60;99.90
32215;DHT22;18708;53.124;23.190;2023-07-13T05:30:50;19.70;99.90
32215;DHT22;18708;53.124;23.190;2023-07-13T05:33:16;19.60;99.90
32215;DHT22;18708;53.124;23.190;2023-07-13T05:35:42;19.60;99.90
32215;DHT22;18708;53.124;23.190;2023-07-13T05:38:07;19.60;99.90
32215;DHT22;18708;53.124;23.190;2023-07-13T05:40:33;19.70;99.90
32215;DHT22;18708;53.124;23.190;2023-07-13T05:42:59;19.70;99.90
32215;DHT22;18708;53.124;23.190;2023-07-13T05:45:24;19.90;99.90
32215;DHT22;18708;53.124;23.190;2023-07-13T05:47:51;20.00;99.90
32215;DHT22;18708;53.124;23.190;2023-07-13T05:50:16;20.10;99.90
32215;DHT22;18708;53.124;23.190;2023-07-13T05:52:42;20.20;99.90
32215;DHT22;18708;53.124;23.190;2023-07-13T05:55:07;20.40;99.90
32215;DHT22;18708;53.124;23.190;2023-07-13T05:57:33;20.50;99.90
32215;DHT22;18708;53.124;23.190;2023-07-13T05:59:59;20.60;99.90
32215;DHT22;18708;53.124;23.190;2023-07-13T06:02:24;20.70;99.90
32215;DHT22;18708;53.124;23.190;2023-07-13T06:04:51;20.80;99.90
32215;DHT22;18708;53.124;23.190;2023-07-13T06:07:17;20.80;99.90
32215;DHT22;18708;53.124;23.190;2023-07-13T06:09:42;20.90;99.90
32215;DHT22;18708;53.124;23.190;2023-07-13T06:12:08;21.00;99.90
32215;DHT22;18708;53.124;23.190;2023-07-13T06:14:34;21.20;99.90
32215;DHT22;18708;53.124;23.190;2023-07-13T06:17:00;21.30;99.90
32215;DHT22;18708;53.124;23.190;2023-07-13T06:19:25;21.40;99.90
32215;DHT22;18708;53.124;23.190;2023-07-13T06:21:51;21.50;99.90
32215;DHT22;18708;53.124;23.190;2023-07-13T06:24:16;21.70;99.90
32215;DHT22;18708;53.124;23.190;2023-07-13T06:26:42;22.00;99.90
32215;DHT22;18708;53.124;23.190;2023-07-13T06:29:07;22.10;99.90
32215;DHT22;18708;53.124;23.190;2023-07-13T06:31:33;22.30;99.90
32215;DHT22;18708;53.124;23.190;2023-07-13T06:33:58;22.60;99.90
32215;DHT22;18708;53.124;23.190;2023-07-13T06:36:24;23.10;99.90
32215;DHT22;18708;53.124;23.190;2023-07-13T06:38:49;23.80;99.90
32215;DHT22;18708;53.124;23.190;2023-07-13T06:41:15;24.00;99.90
32215;DHT22;18708;53.124;23.190;2023-07-13T06:43:41;24.00;99.90
32215;DHT22;18708;53.124;23.190;2023-07-13T06:46:06;24.40;99.90
32215;DHT22;18708;53.124;23.190;2023-07-13T06:48:32;24.50;99.90
32215;DHT22;18708;53.124;23.190;2023-07-13T06:50:57;24.40;99.90
32215;DHT22;18708;53.124;23.190;2023-07-13T06:53:23;24.20;99.90
32215;DHT22;18708;53.124;23.190;2023-07-13T06:55:49;24.30;99.90
32215;DHT22;18708;53.124;23.190;2023-07-13T06:58:15;24.40;99.90
32215;DHT22;18708;53.124;23.190;2023-07-13T07:00:41;24.70;99.90
32215;DHT22;18708;53.124;23.190;2023-07-13T07:03:07;24.90;99.90
32215;DHT22;18708;53.124;23.190;2023-07-13T07:05:32;24.90;99.90
32215;DHT22;18708;53.124;23.190;2023-07-13T07:07:58;24.90;99.90
32215;DHT22;18708;53.124;23.190;2023-07-13T07:10:24;24.90;99.90
32215;DHT22;18708;53.124;23.190;2023-07-13T07:12:49;25.00;99.90
32215;DHT22;18708;53.124;23.190;2023-07-13T07:15:15;25.10;99.90
32215;DHT22;18708;53.124;23.190;2023-07-13T07:17:41;24.90;99.90
32215;DHT22;18708;53.124;23.190;2023-07-13T07:20:06;24.90;99.90
32215;DHT22;18708;53.124;23.190;2023-07-13T07:22:32;25.10;99.90
32215;DHT22;18708;53.124;23.190;2023-07-13T07:24:58;25.40;99.90
32215;DHT22;18708;53.124;23.190;2023-07-13T07:27:24;26.20;99.90
32215;DHT22;18708;53.124;23.190;2023-07-13T07:29:50;25.90;98.30
32215;DHT22;18708;53.124;23.190;2023-07-13T07:32:15;25.70;98.70
32215;DHT22;18708;53.124;23.190;2023-07-13T07:34:41;25.80;99.30
32215;DHT22;18708;53.124;23.190;2023-07-13T07:37:09;25.40;96.10
32215;DHT22;18708;53.124;23.190;2023-07-13T07:39:36;25.40;99.40
32215;DHT22;18708;53.124;23.190;2023-07-13T07:42:01;26.10;96.70
32215;DHT22;18708;53.124;23.190;2023-07-13T07:44:27;25.80;96.00
32215;DHT22;18708;53.124;23.190;2023-07-13T07:46:53;25.70;96.50
32215;DHT22;18708;53.124;23.190;2023-07-13T07:49:19;26.00;96.30
32215;DHT22;18708;53.124;23.190;2023-07-13T07:51:45;26.20;94.80
32215;DHT22;18708;53.124;23.190;2023-07-13T07:54:10;26.20;99.80
32215;DHT22;18708;53.124;23.190;2023-07-13T07:56:36;26.60;96.10
32215;DHT22;18708;53.124;23.190;2023-07-13T07:59:02;27.00;98.20
32215;DHT22;18708;53.124;23.190;2023-07-13T08:01:27;26.90;90.10
32215;DHT22;18708;53.124;23.190;2023-07-13T08:03:53;26.30;91.70
32215;DHT22;18708;53.124;23.190;2023-07-13T08:06:18;26.80;96.20
32215;DHT22;18708;53.124;23.190;2023-07-13T08:08:45;27.00;93.20
32215;DHT22;18708;53.124;23.190;2023-07-13T08:11:11;27.60;91.70
32215;DHT22;18708;53.124;23.190;2023-07-13T08:13:37;27.90;94.40
32215;DHT22;18708;53.124;23.190;2023-07-13T08:16:04;27.60;89.70
32215;DHT22;18708;53.124;23.190;2023-07-13T08:18:29;27.80;85.60
32215;DHT22;18708;53.124;23.190;2023-07-13T08:20:55;28.10;85.00
32215;DHT22;18708;53.124;23.190;2023-07-13T08:23:24;28.50;92.50
32215;DHT22;18708;53.124;23.190;2023-07-13T08:25:53;28.20;88.60
32215;DHT22;18708;53.124;23.190;2023-07-13T08:28:21;27.50;83.50
32215;DHT22;18708;53.124;23.190;2023-07-13T08:30:47;26.80;82.50
32215;DHT22;18708;53.124;23.190;2023-07-13T08:33:14;26.60;87.50
32215;DHT22;18708;53.124;23.190;2023-07-13T08:35:40;26.50;83.80
32215;DHT22;18708;53.124;23.190;2023-07-13T08:38:06;27.00;90.00
32215;DHT22;18708;53.124;23.190;2023-07-13T08:40:31;27.20;84.90
32215;DHT22;18708;53.124;23.190;2023-07-13T08:42:58;27.40;85.60
32215;DHT22;18708;53.124;23.190;2023-07-13T08:45:33;27.60;80.10
32215;DHT22;18708;53.124;23.190;2023-07-13T08:48:09;27.70;88.00
32215;DHT22;18708;53.124;23.190;2023-07-13T08:50:35;27.60;77.20
32215;DHT22;18708;53.124;23.190;2023-07-13T08:53:04;27.70;76.60
32215;DHT22;18708;53.124;23.190;2023-07-13T08:55:30;27.50;80.00
32215;DHT22;18708;53.124;23.190;2023-07-13T08:58:03;27.60;77.90
32215;DHT22;18708;53.124;23.190;2023-07-13T09:00:43;28.30;78.00
32215;DHT22;18708;53.124;23.190;2023-07-13T09:03:15;28.70;75.80
32215;DHT22;18708;53.124;23.190;2023-07-13T09:05:46;29.40;73.80
32215;DHT22;18708;53.124;23.190;2023-07-13T09:13:45;30.40;66.70
32215;DHT22;18708;53.124;23.190;2023-07-13T09:16:14;30.40;65.70
32215;DHT22;18708;53.124;23.190;2023-07-13T09:18:41;30.90;61.80
32215;DHT22;18708;53.124;23.190;2023-07-13T09:21:09;30.80;62.50
32215;DHT22;18708;53.124;23.190;2023-07-13T09:23:36;30.50;60.90
32215;DHT22;18708;53.124;23.190;2023-07-13T09:26:07;30.10;62.30
32215;DHT22;18708;53.124;23.190;2023-07-13T09:28:37;29.90;61.70
32215;DHT22;18708;53.124;23.190;2023-07-13T09:33:41;30.10;57.20
32215;DHT22;18708;53.124;23.190;2023-07-13T09:38:42;30.20;59.80
32215;DHT22;18708;53.124;23.190;2023-07-13T09:43:39;30.00;54.10
32215;DHT22;18708;53.124;23.190;2023-07-13T09:46:07;29.50;57.10
32215;DHT22;18708;53.124;23.190;2023-07-13T09:48:44;29.70;59.20
32215;DHT22;18708;53.124;23.190;2023-07-13T09:51:13;29.60;55.90
32215;DHT22;18708;53.124;23.190;2023-07-13T09:53:40;29.40;56.60
32215;DHT22;18708;53.124;23.190;2023-07-13T09:56:11;29.40;55.80
32215;DHT22;18708;53.124;23.190;2023-07-13T09:58:43;29.20;58.50
32215;DHT22;18708;53.124;23.190;2023-07-13T10:01:09;29.00;55.20
32215;DHT22;18708;53.124;23.190;2023-07-13T10:03:35;29.50;61.80
32215;DHT22;18708;53.124;23.190;2023-07-13T10:06:12;29.00;54.90
32215;DHT22;18708;53.124;23.190;2023-07-13T10:08:38;28.90;63.40
32215;DHT22;18708;53.124;23.190;2023-07-13T10:16:25;30.90;55.20
32215;DHT22;18708;53.124;23.190;2023-07-13T10:18:53;29.70;53.30
32215;DHT22;18708;53.124;23.190;2023-07-13T10:21:21;29.30;58.70
32215;DHT22;18708;53.124;23.190;2023-07-13T10:23:52;30.60;54.30
32215;DHT22;18708;53.124;23.190;2023-07-13T10:26:26;30.20;53.30
32215;DHT22;18708;53.124;23.190;2023-07-13T10:28:54;29.20;53.80
32215;DHT22;18708;53.124;23.190;2023-07-13T10:31:21;29.90;54.80
32215;DHT22;18708;53.124;23.190;2023-07-13T10:33:47;30.50;54.00
32215;DHT22;18708;53.124;23.190;2023-07-13T10:38:42;31.50;53.60
32215;DHT22;18708;53.124;23.190;2023-07-13T10:41:13;31.00;50.70
32215;DHT22;18708;53.124;23.190;2023-07-13T10:43:44;30.00;50.10
32215;DHT22;18708;53.124;23.190;2023-07-13T10:46:11;29.50;54.30
32215;DHT22;18708;53.124;23.190;2023-07-13T10:48:37;29.70;54.70
32215;DHT22;18708;53.124;23.190;2023-07-13T10:51:04;30.50;57.40
32215;DHT22;18708;53.124;23.190;2023-07-13T10:53:32;30.30;53.40
32215;DHT22;18708;53.124;23.190;2023-07-13T10:55:59;30.30;51.30
32215;DHT22;18708;53.124;23.190;2023-07-13T10:58:33;30.60;52.70
32215;DHT22;18708;53.124;23.190;2023-07-13T11:01:17;30.80;52.20
32215;DHT22;18708;53.124;23.190;2023-07-13T11:18:52;29.60;50.90
32215;DHT22;18708;53.124;23.190;2023-07-13T11:21:22;29.30;52.60
32215;DHT22;18708;53.124;23.190;2023-07-13T11:23:54;29.80;52.60
32215;DHT22;18708;53.124;23.190;2023-07-13T11:26:39;29.90;50.50
32215;DHT22;18708;53.124;23.190;2023-07-13T11:29:12;29.40;53.40
32215;DHT22;18708;53.124;23.190;2023-07-13T11:31:53;29.20;51.70
32215;DHT22;18708;53.124;23.190;2023-07-13T11:34:40;28.40;52.90
32215;DHT22;18708;53.124;23.190;2023-07-13T11:37:08;29.60;56.90
32215;DHT22;18708;53.124;23.190;2023-07-13T11:39:36;29.60;50.20
32215;DHT22;18708;53.124;23.190;2023-07-13T11:42:05;29.80;51.30
32215;DHT22;18708;53.124;23.190;2023-07-13T11:44:31;29.80;54.40
32215;DHT22;18708;53.124;23.190;2023-07-13T11:46:58;30.40;50.80
32215;DHT22;18708;53.124;23.190;2023-07-13T11:49:30;30.50;49.10
32215;DHT22;18708;53.124;23.190;2023-07-13T11:51:56;30.30;49.70
32215;DHT22;18708;53.124;23.190;2023-07-13T11:54:25;30.00;49.50
32215;DHT22;18708;53.124;23.190;2023-07-13T11:56:52;30.30;50.90
32215;DHT22;18708;53.124;23.190;2023-07-13T11:59:18;29.70;51.70
32215;DHT22;18708;53.124;23.190;2023-07-13T12:01:48;29.80;56.10
32215;DHT22;18708;53.124;23.190;2023-07-13T12:04:20;30.40;49.50
32215;DHT22;18708;53.124;23.190;2023-07-13T12:06:47;29.70;50.80
32215;DHT22;18708;53.124;23.190;2023-07-13T12:09:19;29.50;52.50
32215;DHT22;18708;53.124;23.190;2023-07-13T12:11:50;29.10;52.60
32215;DHT22;18708;53.124;23.190;2023-07-13T12:14:17;29.10;52.20
32215;DHT22;18708;53.124;23.190;2023-07-13T12:16:43;29.10;51.70
32215;DHT22;18708;53.124;23.190;2023-07-13T12:21:43;29.10;52.30
32215;DHT22;18708;53.124;23.190;2023-07-13T12:24:15;29.10;52.50
32215;DHT22;18708;53.124;23.190;2023-07-13T12:26:41;29.20;52.20
32215;DHT22;18708;53.124;23.190;2023-07-13T12:29:07;29.70;54.70
32215;DHT22;18708;53.124;23.190;2023-07-13T12:31:36;30.10;50.00
32215;DHT22;18708;53.124;23.190;2023-07-13T12:34:22;30.20;55.60
32215;DHT22;18708;53.124;23.190;2023-07-13T12:36:49;30.10;51.10
32215;DHT22;18708;53.124;23.190;2023-07-13T12:41:41;29.80;50.70
32215;DHT22;18708;53.124;23.190;2023-07-13T12:44:10;29.50;50.30
32215;DHT22;18708;53.124;23.190;2023-07-13T12:46:37;29.50;51.10
32215;DHT22;18708;53.124;23.190;2023-07-13T12:49:04;29.10;53.00
32215;DHT22;18708;53.124;23.190;2023-07-13T12:51:32;28.90;51.60
32215;DHT22;18708;53.124;23.190;2023-07-13T12:54:05;28.50;54.50
32215;DHT22;18708;53.124;23.190;2023-07-13T12:56:30;28.50;56.60
32215;DHT22;18708;53.124;23.190;2023-07-13T12:59:00;28.50;54.20
32215;DHT22;18708;53.124;23.190;2023-07-13T13:01:26;28.50;53.70
32215;DHT22;18708;53.124;23.190;2023-07-13T13:03:53;28.30;53.30
32215;DHT22;18708;53.124;23.190;2023-07-13T13:08:51;28.30;55.20
32215;DHT22;18708;53.124;23.190;2023-07-13T13:11:18;28.30;55.30
32215;DHT22;18708;53.124;23.190;2023-07-13T13:13:44;28.80;55.70
32215;DHT22;18708;53.124;23.190;2023-07-13T13:18:38;29.10;51.80
32215;DHT22;18708;53.124;23.190;2023-07-13T13:21:03;29.00;56.00
32215;DHT22;18708;53.124;23.190;2023-07-13T13:23:29;28.90;53.60
32215;DHT22;18708;53.124;23.190;2023-07-13T13:25:54;28.60;52.30
32215;DHT22;18708;53.124;23.190;2023-07-13T13:28:20;28.20;53.70
32215;DHT22;18708;53.124;23.190;2023-07-13T13:30:47;27.90;53.40
32215;DHT22;18708;53.124;23.190;2023-07-13T13:33:14;27.50;53.40
32215;DHT22;18708;53.124;23.190;2023-07-13T13:35:41;27.40;53.90
32215;DHT22;18708;53.124;23.190;2023-07-13T13:38:10;27.40;53.80
32215;DHT22;18708;53.124;23.190;2023-07-13T13:40:36;27.30;54.70
32215;DHT22;18708;53.124;23.190;2023-07-13T13:43:02;27.30;55.60
32215;DHT22;18708;53.124;23.190;2023-07-13T13:45:27;27.20;54.80
32215;DHT22;18708;53.124;23.190;2023-07-13T13:47:53;27.10;54.70
32215;DHT22;18708;53.124;23.190;2023-07-13T13:50:21;27.00;55.30
32215;DHT22;18708;53.124;23.190;2023-07-13T13:52:49;26.90;55.40
32215;DHT22;18708;53.124;23.190;2023-07-13T13:55:17;26.90;55.90
32215;DHT22;18708;53.124;23.190;2023-07-13T13:57:45;27.00;55.80
32215;DHT22;18708;53.124;23.190;2023-07-13T14:00:10;26.90;56.50
32215;DHT22;18708;53.124;23.190;2023-07-13T14:02:40;27.00;55.00
32215;DHT22;18708;53.124;23.190;2023-07-13T14:05:09;27.00;55.70
32215;DHT22;18708;53.124;23.190;2023-07-13T14:07:35;26.90;55.40
32215;DHT22;18708;53.124;23.190;2023-07-13T14:10:01;27.00;54.90
32215;DHT22;18708;53.124;23.190;2023-07-13T14:12:27;27.10;57.00
32215;DHT22;18708;53.124;23.190;2023-07-13T14:14:54;26.90;54.60
32215;DHT22;18708;53.124;23.190;2023-07-13T14:17:20;26.90;56.90
32215;DHT22;18708;53.124;23.190;2023-07-13T14:19:52;26.80;55.90
32215;DHT22;18708;53.124;23.190;2023-07-13T14:22:22;26.70;55.60
32215;DHT22;18708;53.124;23.190;2023-07-13T14:24:48;26.70;55.20
32215;DHT22;18708;53.124;23.190;2023-07-13T14:27:14;26.60;56.50
32215;DHT22;18708;53.124;23.190;2023-07-13T14:29:40;26.60;56.00
32215;DHT22;18708;53.124;23.190;2023-07-13T14:32:09;26.60;55.90
32215;DHT22;18708;53.124;23.190;2023-07-13T14:34:35;26.60;56.20
32215;DHT22;18708;53.124;23.190;2023-07-13T14:37:00;26.50;56.20
32215;DHT22;18708;53.124;23.190;2023-07-13T14:39:26;26.40;55.00
32215;DHT22;18708;53.124;23.190;2023-07-13T14:41:55;26.20;57.70
32215;DHT22;18708;53.124;23.190;2023-07-13T14:44:25;26.20;55.70
32215;DHT22;18708;53.124;23.190;2023-07-13T14:46:51;26.00;57.20
32215;DHT22;18708;53.124;23.190;2023-07-13T14:49:34;26.00;57.00
32215;DHT22;18708;53.124;23.190;2023-07-13T14:52:05;26.00;56.80
32215;DHT22;18708;53.124;23.190;2023-07-13T14:54:36;25.90;56.40
32215;DHT22;18708;53.124;23.190;2023-07-13T14:57:08;25.80;57.20
32215;DHT22;18708;53.124;23.190;2023-07-13T14:59:34;25.80;57.10
32215;DHT22;18708;53.124;23.190;2023-07-13T15:02:00;25.70;57.90
32215;DHT22;18708;53.124;23.190;2023-07-13T15:04:25;25.60;58.00
32215;DHT22;18708;53.124;23.190;2023-07-13T15:09:19;25.60;58.30
32215;DHT22;18708;53.124;23.190;2023-07-13T15:11:45;25.60;60.40
32215;DHT22;18708;53.124;23.190;2023-07-13T15:14:10;25.50;58.60
32215;DHT22;18708;53.124;23.190;2023-07-13T15:16:36;25.50;57.60
32215;DHT22;18708;53.124;23.190;2023-07-13T15:19:01;25.50;58.00
32215;DHT22;18708;53.124;23.190;2023-07-13T15:21:27;25.50;57.90
32215;DHT22;18708;53.124;23.190;2023-07-13T15:23:59;25.50;58.40
32215;DHT22;18708;53.124;23.190;2023-07-13T15:26:25;25.50;57.70
32215;DHT22;18708;53.124;23.190;2023-07-13T15:28:51;25.60;57.40
32215;DHT22;18708;53.124;23.190;2023-07-13T15:31:23;25.60;57.70
32215;DHT22;18708;53.124;23.190;2023-07-13T15:33:50;25.50;57.30
32215;DHT22;18708;53.124;23.190;2023-07-13T15:36:16;25.50;56.80
32215;DHT22;18708;53.124;23.190;2023-07-13T15:38:42;25.40;58.60
32215;DHT22;18708;53.124;23.190;2023-07-13T15:41:13;25.30;57.60
32215;DHT22;18708;53.124;23.190;2023-07-13T15:43:41;25.30;58.50
32215;DHT22;18708;53.124;23.190;2023-07-13T15:46:06;25.30;60.00
32215;DHT22;18708;53.124;23.190;2023-07-13T15:48:32;25.30;59.30
32215;DHT22;18708;53.124;23.190;2023-07-13T15:51:00;25.40;57.80
32215;DHT22;18708;53.124;23.190;2023-07-13T15:53:30;25.40;57.60
32215;DHT22;18708;53.124;23.190;2023-07-13T15:55:56;25.30;58.10
32215;DHT22;18708;53.124;23.190;2023-07-13T15:58:22;25.30;58.10
32215;DHT22;18708;53.124;23.190;2023-07-13T16:00:48;25.30;59.80
32215;DHT22;18708;53.124;23.190;2023-07-13T16:03:16;25.30;59.50
32215;DHT22;18708;53.124;23.190;2023-07-13T16:05:42;25.20;59.90
32215;DHT22;18708;53.124;23.190;2023-07-13T16:08:14;25.20;61.10